KBNO/BNO METAR and TAF weather

Enter ICAO airport designator
Station Type Date Time Source
KBNO METAR 2018/10/21 03:53 UTC NOAA

KBNO 210353Z AUTO 00000KT 10SM CLR 05/M08 A3013 RMK AO2 SLP209 T00501078


Station Type Date Time Source
KBNO Decoded METAR 2018/10/21 03:53 UTC NOAA

BURNS MUNICIPAL AIRPORT, OR, United States (KBNO) 43-36N 118-57W 1264M
Oct 20, 2018 - 11:53 PM EDT / 2018.10.21 0353 UTC
Wind: Calm:0
Visibility: 10 mile(s):0
Sky conditions: clear
Temperature: 41.0 F (5.0 C)
Dew Point: 18.0 F (-7.8 C)
Relative Humidity: 39%
Pressure (altimeter): 30.13 in. Hg (1020 hPa)
ob: KBNO 210353Z AUTO 00000KT 10SM CLR 05/M08 A3013 RMK AO2 SLP209 T00501078
cycle: 4

Station Type Date Time Source
KBNO TAF 2018/10/20 18:22 UTC NOAA

TAF KBNO 201720Z 2018/2118 VRB05KT P6SM SKC


Example: see airport list